MDT,Max TemperatureF,Mean TemperatureF,Min TemperatureF,Max Dew PointF,MeanDew PointF,Min DewpointF,Max Humidity, Mean Humidity, Min Humidity, Max Sea Level PressureIn, Mean Sea Level PressureIn, Min Sea Level PressureIn, Max VisibilityMiles, Mean VisibilityMiles, Min VisibilityMiles, Max Wind SpeedMPH, Mean Wind SpeedMPH, Max Gust SpeedMPH,PrecipitationIn, CloudCover, Events, WindDirDegrees
2013-8-1,91,74,57,60,54,49,80,52,24,30.03,29.90,29.76,10,10,5,29,8,40,0.07,1,Rain-Thunderstorm,107
2013-8-2,87,73,58,59,56,52,90,63,35,30.01,29.84,29.77,10,10,10,22,10,26,0.00,0,,103
2013-8-3,83,70,57,62,59,55,93,68,43,30.21,30.03,29.88,10,10,5,33,13,41,0.00,4,,116
2013-8-4,91,73,54,60,51,39,93,55,17,30.18,29.95,29.84,10,10,10,21,8,29,T,0,Thunderstorm,62
2013-8-5,93,77,60,59,48,28,84,47,10,30.13,29.87,29.74,10,10,10,24,8,30,0.00,0,,201
2013-8-6,89,73,56,53,48,40,80,49,18,29.96,29.87,29.79,10,10,10,23,8,26,0.00,0,,6
2013-8-7,85,70,54,54,50,42,77,51,24,30.08,29.92,29.82,10,10,3,29,12,38,0.05,1,Rain-Thunderstorm,125
2013-8-8,85,69,52,55,48,40,89,56,23,30.18,30.01,29.91,10,10,1,33,11,45,T,2,Rain-Thunderstorm,105
2013-8-9,81,67,52,55,50,46,93,63,33,30.27,30.07,29.99,10,10,10,24,8,30,T,2,Rain-Thunderstorm,112
2013-8-10,83,67,51,53,47,42,89,58,26,30.19,30.05,29.97,10,10,10,21,6,28,0.02,0,,148
2013-8-11,84,68,52,55,46,39,77,50,23,30.29,30.10,30.00,10,10,6,23,8,28,T,3,Rain-Thunderstorm,157
2013-8-12,83,67,50,51,45,39,93,58,23,30.23,30.05,30.00,10,10,10,22,7,29,0.00,0,,143
2013-8-13,83,66,49,47,43,39,77,50,23,30.13,30.07,30.02,10,10,10,28,7,33,0.00,0,,257
2013-8-14,86,67,47,52,43,36,80,49,17,30.10,30.02,29.95,10,10,10,26,8,31,0.00,0,,60
2013-8-15,89,72,55,54,46,33,80,47,14,30.21,30.01,29.95,10,10,10,20,8,39,T,1,Rain-Thunderstorm,85
2013-8-16,95,72,49,49,39,26,77,43,9,30.05,29.99,29.94,10,10,10,15,6,18,0.00,0,,51
2013-8-17,99,78,57,58,43,18,80,43,6,29.96,29.89,29.81,10,10,9,15,7,20,0.00,0,,144
2013-8-18,97,76,55,58,48,35,93,54,14,30.07,29.91,29.84,10,10,10,23,9,29,0.00,0,,37
2013-8-19,97,75,53,49,42,26,72,41,9,29.98,29.89,29.81,10,10,9,22,5,26,0.00,0,,304
2013-8-20,96,77,57,47,39,34,53,33,12,29.89,29.85,29.80,10,10,10,28,10,33,0.00,1,,312
2013-8-21,82,76,69,55,49,46,47,38,28,30.15,29.95,29.88,10,10,10,20,7,28,0.00,4,Thunderstorm,226
2013-8-22,88,78,68,57,54,52,68,51,31,30.19,30.16,30.12,10,10,10,22,15,28,0.00,4,Rain-Thunderstorm,136
2013-8-23,91,77,62,58,52,46,84,54,23,30.14,29.86,29.74,10,10,8,23,9,29,T,2,Rain,166
2013-8-24,88,75,61,50,45,38,60,41,21,30.06,29.86,29.76,10,10,10,23,6,29,0.00,1,,286
2013-8-25,91,72,53,51,44,39,59,40,21,30.00,29.96,29.91,10,10,10,18,6,24,0.00,2,,269
2013-8-26,92,78,64,51,47,42,60,39,18,30.11,29.93,29.88,10,10,10,26,10,33,0.00,1,,255
2013-8-27,94,80,65,59,52,46,73,47,21,30.14,29.95,29.86,10,10,10,24,7,31,0.01,2,Rain-Thunderstorm,259
2013-8-28,96,78,59,55,51,46,80,50,19,30.09,29.94,29.86,10,10,7,31,7,39,T,1,Thunderstorm,136
2013-8-29,94,75,55,52,46,40,77,47,16,30.05,29.99,29.92,10,10,10,15,7,23,0.00,0,,337
2013-8-30,97,80,62,54,45,35,72,43,13,30.10,29.95,29.84,10,10,10,16,8,23,0.00,0,Thunderstorm,315
2013-8-31,87,72,56,51,41,38,60,39,18,30.05,29.95,29.86,10,10,10,23,10,28,0.00,0,,352